sensor_id;sensor_type;location;lat;lon;timestamp;pressure;altitude;pressure_sealevel;temperature;humidity
76374;BME280;65197;50.164;8.012;2023-02-08T00:02:10;97485.31;;;-3.35;58.49
76374;BME280;65197;50.164;8.012;2023-02-08T00:04:35;97471.00;;;-3.62;59.96
76374;BME280;65197;50.164;8.012;2023-02-08T00:07:00;97490.16;;;-3.61;61.44
76374;BME280;65197;50.164;8.012;2023-02-08T00:09:26;97484.94;;;-3.67;60.75
76374;BME280;65197;50.164;8.012;2023-02-08T00:11:51;97466.16;;;-3.79;61.19
76374;BME280;65197;50.164;8.012;2023-02-08T00:14:17;97437.44;;;-3.92;61.16
76374;BME280;65197;50.164;8.012;2023-02-08T00:16:42;97482.63;;;-3.62;59.92
76374;BME280;65197;50.164;8.012;2023-02-08T00:19:07;97459.78;;;-3.73;60.92
76374;BME280;65197;50.164;8.012;2023-02-08T00:21:33;97468.16;;;-3.71;61.18
76374;BME280;65197;50.164;8.012;2023-02-08T00:23:58;97460.47;;;-3.77;60.67
76374;BME280;65197;50.164;8.012;2023-02-08T00:26:24;97498.34;;;-3.65;60.92
76374;BME280;65197;50.164;8.012;2023-02-08T00:28:49;97487.31;;;-3.70;61.94
76374;BME280;65197;50.164;8.012;2023-02-08T00:31:14;97484.22;;;-3.64;60.97
76374;BME280;65197;50.164;8.012;2023-02-08T00:33:40;97481.91;;;-3.60;59.64
76374;BME280;65197;50.164;8.012;2023-02-08T00:36:07;97483.44;;;-3.41;59.15
76374;BME280;65197;50.164;8.012;2023-02-08T00:38:33;97457.41;;;-3.47;59.67
76374;BME280;65197;50.164;8.012;2023-02-08T00:40:58;97454.91;;;-3.47;58.96
76374;BME280;65197;50.164;8.012;2023-02-08T00:43:24;97472.13;;;-3.33;58.60
76374;BME280;65197;50.164;8.012;2023-02-08T00:45:57;97475.34;;;-3.35;59.00
76374;BME280;65197;50.164;8.012;2023-02-08T00:48:23;97450.25;;;-3.61;59.69
76374;BME280;65197;50.164;8.012;2023-02-08T00:51:09;97485.88;;;-3.42;59.63
76374;BME280;65197;50.164;8.012;2023-02-08T00:53:41;97470.69;;;-3.48;60.46
76374;BME280;65197;50.164;8.012;2023-02-08T00:56:08;97483.94;;;-3.49;60.57
76374;BME280;65197;50.164;8.012;2023-02-08T00:58:33;97466.94;;;-3.60;60.27
76374;BME280;65197;50.164;8.012;2023-02-08T01:00:59;97480.31;;;-3.58;61.35
76374;BME280;65197;50.164;8.012;2023-02-08T01:03:25;97479.63;;;-3.53;60.55
76374;BME280;65197;50.164;8.012;2023-02-08T01:05:51;97488.72;;;-3.55;61.02
76374;BME280;65197;50.164;8.012;2023-02-08T01:08:17;97473.28;;;-3.68;61.76
76374;BME280;65197;50.164;8.012;2023-02-08T01:10:45;97454.22;;;-3.88;61.95
76374;BME280;65197;50.164;8.012;2023-02-08T01:13:10;97469.41;;;-3.82;62.20
76374;BME280;65197;50.164;8.012;2023-02-08T01:15:36;97477.69;;;-3.83;62.63
76374;BME280;65197;50.164;8.012;2023-02-08T01:18:02;97476.66;;;-3.88;62.81
76374;BME280;65197;50.164;8.012;2023-02-08T01:20:27;97457.88;;;-4.01;63.66
76374;BME280;65197;50.164;8.012;2023-02-08T01:22:54;97467.22;;;-3.95;63.41
76374;BME280;65197;50.164;8.012;2023-02-08T01:25:20;97478.78;;;-3.97;63.63
76374;BME280;65197;50.164;8.012;2023-02-08T01:27:45;97475.13;;;-4.05;64.43
76374;BME280;65197;50.164;8.012;2023-02-08T01:30:11;97479.28;;;-4.06;64.51
76374;BME280;65197;50.164;8.012;2023-02-08T01:32:36;97471.72;;;-4.07;63.99
76374;BME280;65197;50.164;8.012;2023-02-08T01:35:02;97454.84;;;-4.15;64.25
76374;BME280;65197;50.164;8.012;2023-02-08T01:37:27;97471.97;;;-4.01;64.22
76374;BME280;65197;50.164;8.012;2023-02-08T01:39:53;97465.03;;;-4.08;63.34
76374;BME280;65197;50.164;8.012;2023-02-08T01:42:18;97464.81;;;-4.15;64.21
76374;BME280;65197;50.164;8.012;2023-02-08T01:47:45;97443.63;;;-4.45;64.35
76374;BME280;65197;50.164;8.012;2023-02-08T01:50:13;97462.75;;;-4.25;64.70
76374;BME280;65197;50.164;8.012;2023-02-08T01:52:39;97460.66;;;-4.35;64.70
76374;BME280;65197;50.164;8.012;2023-02-08T01:55:31;97439.25;;;-4.30;63.37
76374;BME280;65197;50.164;8.012;2023-02-08T01:57:58;97449.72;;;-4.18;64.82
76374;BME280;65197;50.164;8.012;2023-02-08T02:00:25;97433.09;;;-4.19;64.20
76374;BME280;65197;50.164;8.012;2023-02-08T02:02:53;97467.91;;;-3.99;63.73
76374;BME280;65197;50.164;8.012;2023-02-08T02:05:21;97467.75;;;-4.02;64.84
76374;BME280;65197;50.164;8.012;2023-02-08T02:07:48;97461.44;;;-3.94;63.61
76374;BME280;65197;50.164;8.012;2023-02-08T02:12:51;97448.19;;;-3.93;63.45
76374;BME280;65197;50.164;8.012;2023-02-08T02:15:17;97445.69;;;-3.93;63.41
76374;BME280;65197;50.164;8.012;2023-02-08T02:17:42;97450.59;;;-3.96;64.11
76374;BME280;65197;50.164;8.012;2023-02-08T02:20:40;97445.16;;;-4.07;65.08
76374;BME280;65197;50.164;8.012;2023-02-08T02:23:19;97454.84;;;-4.15;65.14
76374;BME280;65197;50.164;8.012;2023-02-08T02:34:17;97454.81;;;-3.94;62.59
76374;BME280;65197;50.164;8.012;2023-02-08T02:37:23;97449.00;;;-3.94;63.12
76374;BME280;65197;50.164;8.012;2023-02-08T02:46:02;97443.78;;;-4.00;63.61
76374;BME280;65197;50.164;8.012;2023-02-08T02:51:26;97442.88;;;-3.80;60.11
76374;BME280;65197;50.164;8.012;2023-02-08T02:54:07;97429.72;;;-3.77;59.20
76374;BME280;65197;50.164;8.012;2023-02-08T02:56:41;97434.19;;;-3.69;59.21
76374;BME280;65197;50.164;8.012;2023-02-08T02:59:09;97427.03;;;-3.82;59.36
76374;BME280;65197;50.164;8.012;2023-02-08T03:01:36;97409.88;;;-3.97;59.60
76374;BME280;65197;50.164;8.012;2023-02-08T03:04:16;97402.88;;;-4.05;60.66
76374;BME280;65197;50.164;8.012;2023-02-08T03:06:58;97426.75;;;-3.90;60.72
76374;BME280;65197;50.164;8.012;2023-02-08T03:20:31;97442.78;;;-3.83;61.29
76374;BME280;65197;50.164;8.012;2023-02-08T03:25:54;97437.13;;;-3.79;60.93
76374;BME280;65197;50.164;8.012;2023-02-08T03:28:42;97431.72;;;-3.90;60.88
76374;BME280;65197;50.164;8.012;2023-02-08T03:34:13;97441.94;;;-3.83;60.66
76374;BME280;65197;50.164;8.012;2023-02-08T03:36:47;97439.72;;;-3.76;60.86
76374;BME280;65197;50.164;8.012;2023-02-08T03:39:20;97405.47;;;-4.02;61.25
76374;BME280;65197;50.164;8.012;2023-02-08T03:41:50;97432.69;;;-3.86;61.02
76374;BME280;65197;50.164;8.012;2023-02-08T03:44:21;97437.56;;;-3.89;61.13
76374;BME280;65197;50.164;8.012;2023-02-08T03:46:51;97416.16;;;-4.06;61.94
76374;BME280;65197;50.164;8.012;2023-02-08T03:49:30;97436.34;;;-3.99;62.03
76374;BME280;65197;50.164;8.012;2023-02-08T03:52:00;97438.66;;;-3.82;61.78
76374;BME280;65197;50.164;8.012;2023-02-08T03:54:30;97392.75;;;-4.10;61.34
76374;BME280;65197;50.164;8.012;2023-02-08T03:57:12;97445.16;;;-3.86;61.92
76374;BME280;65197;50.164;8.012;2023-02-08T03:59:42;97414.78;;;-3.98;61.99
76374;BME280;65197;50.164;8.012;2023-02-08T04:02:13;97437.69;;;-3.86;62.67
76374;BME280;65197;50.164;8.012;2023-02-08T04:04:43;97387.94;;;-4.05;61.89
76374;BME280;65197;50.164;8.012;2023-02-08T04:07:11;97437.22;;;-3.76;61.62
76374;BME280;65197;50.164;8.012;2023-02-08T04:09:36;97421.25;;;-3.81;61.68
76374;BME280;65197;50.164;8.012;2023-02-08T04:12:02;97437.91;;;-3.80;61.92
76374;BME280;65197;50.164;8.012;2023-02-08T04:14:27;97427.94;;;-3.80;61.45
76374;BME280;65197;50.164;8.012;2023-02-08T04:16:54;97437.97;;;-3.78;61.15
76374;BME280;65197;50.164;8.012;2023-02-08T04:19:19;97432.81;;;-3.83;61.90
76374;BME280;65197;50.164;8.012;2023-02-08T04:21:45;97436.34;;;-3.78;61.34
76374;BME280;65197;50.164;8.012;2023-02-08T04:24:10;97412.53;;;-3.92;61.89
76374;BME280;65197;50.164;8.012;2023-02-08T04:26:35;97430.38;;;-3.81;61.58
76374;BME280;65197;50.164;8.012;2023-02-08T04:29:01;97423.75;;;-3.81;60.94
76374;BME280;65197;50.164;8.012;2023-02-08T04:31:26;97434.66;;;-3.79;62.57
76374;BME280;65197;50.164;8.012;2023-02-08T04:33:51;97424.19;;;-3.91;62.55
76374;BME280;65197;50.164;8.012;2023-02-08T04:36:17;97436.09;;;-3.84;62.15
76374;BME280;65197;50.164;8.012;2023-02-08T04:38:43;97428.69;;;-3.82;62.14
76374;BME280;65197;50.164;8.012;2023-02-08T04:41:08;97432.06;;;-3.80;62.74
76374;BME280;65197;50.164;8.012;2023-02-08T04:43:35;97414.09;;;-3.94;62.08
76374;BME280;65197;50.164;8.012;2023-02-08T04:46:00;97420.38;;;-3.83;61.86
76374;BME280;65197;50.164;8.012;2023-02-08T04:48:25;97418.75;;;-3.81;61.67
76374;BME280;65197;50.164;8.012;2023-02-08T04:50:56;97404.31;;;-3.90;61.66
76374;BME280;65197;50.164;8.012;2023-02-08T04:53:23;97391.06;;;-3.89;61.29
76374;BME280;65197;50.164;8.012;2023-02-08T04:55:48;97399.63;;;-3.82;61.46
76374;BME280;65197;50.164;8.012;2023-02-08T04:58:14;97406.97;;;-3.85;61.06
76374;BME280;65197;50.164;8.012;2023-02-08T05:00:39;97408.63;;;-3.86;61.46
76374;BME280;65197;50.164;8.012;2023-02-08T05:03:05;97422.94;;;-3.80;61.33
76374;BME280;65197;50.164;8.012;2023-02-08T05:05:30;97413.09;;;-3.77;60.71
76374;BME280;65197;50.164;8.012;2023-02-08T05:07:56;97408.91;;;-3.78;60.27
76374;BME280;65197;50.164;8.012;2023-02-08T05:10:21;97408.75;;;-3.82;60.61
76374;BME280;65197;50.164;8.012;2023-02-08T05:12:48;97415.31;;;-3.85;60.54
76374;BME280;65197;50.164;8.012;2023-02-08T05:15:13;97415.31;;;-3.85;60.43
76374;BME280;65197;50.164;8.012;2023-02-08T05:17:39;97382.91;;;-3.85;59.79
76374;BME280;65197;50.164;8.012;2023-02-08T05:20:06;97412.38;;;-3.74;60.27
76374;BME280;65197;50.164;8.012;2023-02-08T05:22:32;97389.88;;;-3.76;60.09
76374;BME280;65197;50.164;8.012;2023-02-08T05:24:58;97406.53;;;-3.75;60.48
76374;BME280;65197;50.164;8.012;2023-02-08T05:27:24;97397.09;;;-3.83;60.23
76374;BME280;65197;50.164;8.012;2023-02-08T05:29:49;97389.31;;;-3.91;61.10
76374;BME280;65197;50.164;8.012;2023-02-08T05:32:15;97402.78;;;-3.86;61.06
76374;BME280;65197;50.164;8.012;2023-02-08T05:34:40;97396.13;;;-3.87;61.07
76374;BME280;65197;50.164;8.012;2023-02-08T05:37:06;97358.94;;;-4.03;60.60
76374;BME280;65197;50.164;8.012;2023-02-08T05:39:31;97412.81;;;-3.85;61.11
76374;BME280;65197;50.164;8.012;2023-02-08T05:41:57;97365.22;;;-4.13;60.56
76374;BME280;65197;50.164;8.012;2023-02-08T05:44:22;97357.38;;;-4.22;61.52
76374;BME280;65197;50.164;8.012;2023-02-08T05:46:48;97396.44;;;-4.00;61.62
76374;BME280;65197;50.164;8.012;2023-02-08T05:49:13;97406.44;;;-3.99;61.25
76374;BME280;65197;50.164;8.012;2023-02-08T05:51:38;97417.44;;;-3.94;60.46
76374;BME280;65197;50.164;8.012;2023-02-08T05:54:04;97405.78;;;-3.95;60.30
76374;BME280;65197;50.164;8.012;2023-02-08T05:56:30;97424.78;;;-3.76;59.70
76374;BME280;65197;50.164;8.012;2023-02-08T05:58:55;97425.56;;;-3.77;58.70
76374;BME280;65197;50.164;8.012;2023-02-08T06:01:21;97426.25;;;-3.81;58.47
76374;BME280;65197;50.164;8.012;2023-02-08T06:03:46;97422.84;;;-3.83;58.13
76374;BME280;65197;50.164;8.012;2023-02-08T06:06:11;97436.22;;;-3.81;57.83
76374;BME280;65197;50.164;8.012;2023-02-08T06:08:38;97413.53;;;-4.10;58.68
76374;BME280;65197;50.164;8.012;2023-02-08T06:11:04;97437.44;;;-3.92;57.50
76374;BME280;65197;50.164;8.012;2023-02-08T06:13:30;97442.53;;;-3.89;56.92
76374;BME280;65197;50.164;8.012;2023-02-08T06:15:55;97409.88;;;-3.97;56.39
76374;BME280;65197;50.164;8.012;2023-02-08T06:18:21;97413.03;;;-4.01;55.99
76374;BME280;65197;50.164;8.012;2023-02-08T06:20:46;97447.59;;;-3.88;55.67
76374;BME280;65197;50.164;8.012;2023-02-08T06:23:12;97437.56;;;-3.89;55.47
76374;BME280;65197;50.164;8.012;2023-02-08T06:25:38;97433.00;;;-3.99;56.13
76374;BME280;65197;50.164;8.012;2023-02-08T06:28:04;97449.84;;;-3.94;56.14
76374;BME280;65197;50.164;8.012;2023-02-08T06:30:29;97454.81;;;-3.94;56.07
76374;BME280;65197;50.164;8.012;2023-02-08T06:32:55;97445.81;;;-3.90;54.36
76374;BME280;65197;50.164;8.012;2023-02-08T06:35:20;97420.09;;;-3.89;53.14
76374;BME280;65197;50.164;8.012;2023-02-08T06:37:46;97426.03;;;-3.87;52.94
76374;BME280;65197;50.164;8.012;2023-02-08T06:40:11;97435.72;;;-3.93;52.74
76374;BME280;65197;50.164;8.012;2023-02-08T06:42:37;97437.81;;;-3.83;52.49
76374;BME280;65197;50.164;8.012;2023-02-08T06:45:02;97442.34;;;-3.73;52.25
76374;BME280;65197;50.164;8.012;2023-02-08T06:47:28;97442.66;;;-3.86;53.79
76374;BME280;65197;50.164;8.012;2023-02-08T06:49:53;97456.72;;;-3.88;53.65
76374;BME280;65197;50.164;8.012;2023-02-08T06:52:19;97443.56;;;-3.84;53.10
76374;BME280;65197;50.164;8.012;2023-02-08T06:54:45;97448.91;;;-3.75;53.32
76374;BME280;65197;50.164;8.012;2023-02-08T06:57:10;97430.50;;;-3.78;53.16
76374;BME280;65197;50.164;8.012;2023-02-08T06:59:39;97456.84;;;-3.63;53.50
76374;BME280;65197;50.164;8.012;2023-02-08T07:02:10;97456.13;;;-3.60;53.91
76374;BME280;65197;50.164;8.012;2023-02-08T07:04:35;97440.28;;;-3.61;53.75
76374;BME280;65197;50.164;8.012;2023-02-08T07:07:01;97434.97;;;-3.25;51.95
76374;BME280;65197;50.164;8.012;2023-02-08T07:09:26;97435.56;;;-2.84;52.09
76374;BME280;65197;50.164;8.012;2023-02-08T07:11:52;97427.72;;;-2.71;51.40
76374;BME280;65197;50.164;8.012;2023-02-08T07:14:17;97431.09;;;-2.69;51.06
76374;BME280;65197;50.164;8.012;2023-02-08T07:16:42;97411.13;;;-2.69;51.55
76374;BME280;65197;50.164;8.012;2023-02-08T07:19:08;97431.91;;;-2.70;50.69
76374;BME280;65197;50.164;8.012;2023-02-08T07:21:33;97418.22;;;-2.81;51.53
76374;BME280;65197;50.164;8.012;2023-02-08T07:23:59;97387.41;;;-3.05;50.86
76374;BME280;65197;50.164;8.012;2023-02-08T07:26:24;97417.91;;;-3.14;50.89
76374;BME280;65197;50.164;8.012;2023-02-08T07:28:49;97430.22;;;-3.19;51.40
76374;BME280;65197;50.164;8.012;2023-02-08T07:31:16;97409.69;;;-3.34;51.25
76374;BME280;65197;50.164;8.012;2023-02-08T07:33:42;97426.47;;;-3.30;51.77
76374;BME280;65197;50.164;8.012;2023-02-08T07:36:08;97438.94;;;-3.30;52.41
76374;BME280;65197;50.164;8.012;2023-02-08T07:38:34;97413.09;;;-3.32;51.50
76374;BME280;65197;50.164;8.012;2023-02-08T07:41:02;97437.88;;;-3.14;50.82
76374;BME280;65197;50.164;8.012;2023-02-08T07:43:27;97407.88;;;-3.38;52.08
76374;BME280;65197;50.164;8.012;2023-02-08T07:45:53;97391.66;;;-3.27;51.78
76374;BME280;65197;50.164;8.012;2023-02-08T07:48:19;97419.16;;;-3.01;50.86
76374;BME280;65197;50.164;8.012;2023-02-08T07:50:44;97414.97;;;-3.02;50.47
76374;BME280;65197;50.164;8.012;2023-02-08T07:53:09;97385.50;;;-2.89;50.85
76374;BME280;65197;50.164;8.012;2023-02-08T07:55:35;97365.25;;;-2.45;49.37
76374;BME280;65197;50.164;8.012;2023-02-08T07:58:00;97390.03;;;-1.72;46.69
76374;BME280;65197;50.164;8.012;2023-02-08T08:00:26;97420.50;;;-0.66;44.19
76374;BME280;65197;50.164;8.012;2023-02-08T08:02:52;97408.91;;;-0.28;42.08
76374;BME280;65197;50.164;8.012;2023-02-08T08:05:17;97403.69;;;0.35;43.23
76374;BME280;65197;50.164;8.012;2023-02-08T08:07:42;97417.91;;;-0.02;41.39
76374;BME280;65197;50.164;8.012;2023-02-08T08:10:08;97422.06;;;-0.04;42.53
76374;BME280;65197;50.164;8.012;2023-02-08T08:12:33;97372.00;;;0.81;41.87
76374;BME280;65197;50.164;8.012;2023-02-08T08:14:59;97400.41;;;0.00;42.06
76374;BME280;65197;50.164;8.012;2023-02-08T08:17:24;97394.28;;;-0.46;44.18
76374;BME280;65197;50.164;8.012;2023-02-08T08:19:50;97399.22;;;-0.82;46.32
76374;BME280;65197;50.164;8.012;2023-02-08T08:22:15;97417.34;;;-1.78;48.27
76374;BME280;65197;50.164;8.012;2023-02-08T08:24:40;97417.69;;;-1.94;50.51
76374;BME280;65197;50.164;8.012;2023-02-08T08:27:06;97404.59;;;-2.13;50.57
76374;BME280;65197;50.164;8.012;2023-02-08T08:29:33;97425.81;;;-2.27;51.87
76374;BME280;65197;50.164;8.012;2023-02-08T08:31:59;97426.44;;;-2.34;53.28
76374;BME280;65197;50.164;8.012;2023-02-08T08:34:24;97420.53;;;-2.36;51.91
76374;BME280;65197;50.164;8.012;2023-02-08T08:36:57;97423.19;;;-1.50;52.14
76374;BME280;65197;50.164;8.012;2023-02-08T08:39:23;97419.25;;;-0.50;49.27
76374;BME280;65197;50.164;8.012;2023-02-08T08:41:48;97412.69;;;0.25;46.45
76374;BME280;65197;50.164;8.012;2023-02-08T08:44:14;97360.94;;;0.32;46.24
76374;BME280;65197;50.164;8.012;2023-02-08T08:46:39;97411.97;;;0.70;45.29
76374;BME280;65197;50.164;8.012;2023-02-08T08:49:05;97411.50;;;0.88;43.75
76374;BME280;65197;50.164;8.012;2023-02-08T08:51:31;97348.94;;;0.57;44.67
76374;BME280;65197;50.164;8.012;2023-02-08T08:54:00;97407.00;;;1.16;44.39
76374;BME280;65197;50.164;8.012;2023-02-08T08:56:25;97411.13;;;1.59;43.61
76374;BME280;65197;50.164;8.012;2023-02-08T08:58:51;97399.56;;;2.23;41.91
76374;BME280;65197;50.164;8.012;2023-02-08T09:01:16;97374.56;;;1.78;42.32
76374;BME280;65197;50.164;8.012;2023-02-08T09:03:41;97408.25;;;2.44;41.78
76374;BME280;65197;50.164;8.012;2023-02-08T09:06:07;97402.22;;;2.34;41.34
76374;BME280;65197;50.164;8.012;2023-02-08T09:08:32;97401.28;;;2.88;40.99
76374;BME280;65197;50.164;8.012;2023-02-08T09:11:10;97410.66;;;2.36;41.62
76374;BME280;65197;50.164;8.012;2023-02-08T09:13:36;97399.72;;;2.99;41.10
76374;BME280;65197;50.164;8.012;2023-02-08T09:18:31;97393.47;;;2.70;41.85
76374;BME280;65197;50.164;8.012;2023-02-08T09:20:56;97355.22;;;2.33;41.17
76374;BME280;65197;50.164;8.012;2023-02-08T09:23:22;97335.81;;;2.91;40.56
76374;BME280;65197;50.164;8.012;2023-02-08T09:25:47;97401.47;;;2.38;40.40
76374;BME280;65197;50.164;8.012;2023-02-08T09:28:12;97372.75;;;2.92;40.45
76374;BME280;65197;50.164;8.012;2023-02-08T09:30:38;97387.03;;;2.92;40.88
76374;BME280;65197;50.164;8.012;2023-02-08T09:33:03;97376.13;;;2.27;40.68
76374;BME280;65197;50.164;8.012;2023-02-08T09:35:29;97393.59;;;2.17;40.26
76374;BME280;65197;50.164;8.012;2023-02-08T09:37:55;97360.25;;;1.74;41.61
76374;BME280;65197;50.164;8.012;2023-02-08T09:40:24;97391.03;;;2.14;40.15
76374;BME280;65197;50.164;8.012;2023-02-08T09:43:08;97385.88;;;3.41;38.87
76374;BME280;65197;50.164;8.012;2023-02-08T09:45:47;97383.25;;;3.29;38.18
76374;BME280;65197;50.164;8.012;2023-02-08T09:48:32;97375.69;;;2.58;38.00
76374;BME280;65197;50.164;8.012;2023-02-08T09:51:25;97368.22;;;3.41;35.71
76374;BME280;65197;50.164;8.012;2023-02-08T09:54:00;97382.50;;;2.04;38.02
76374;BME280;65197;50.164;8.012;2023-02-08T09:56:34;97374.78;;;1.93;37.98
76374;BME280;65197;50.164;8.012;2023-02-08T09:59:02;97381.75;;;2.10;36.88
76374;BME280;65197;50.164;8.012;2023-02-08T10:01:30;97328.56;;;1.32;36.86
76374;BME280;65197;50.164;8.012;2023-02-08T10:03:59;97387.81;;;2.22;38.29
76374;BME280;65197;50.164;8.012;2023-02-08T10:06:25;97373.66;;;2.96;36.05
76374;BME280;65197;50.164;8.012;2023-02-08T10:08:51;97398.47;;;2.64;36.36
76374;BME280;65197;50.164;8.012;2023-02-08T10:17:51;97399.38;;;3.46;37.21
76374;BME280;65197;50.164;8.012;2023-02-08T10:23:50;97406.63;;;1.91;36.64
76374;BME280;65197;50.164;8.012;2023-02-08T10:32:50;97391.53;;;1.91;36.60
76374;BME280;65197;50.164;8.012;2023-02-08T10:35:28;97350.53;;;1.97;37.36
76374;BME280;65197;50.164;8.012;2023-02-08T10:37:59;97392.34;;;2.46;37.44
76374;BME280;65197;50.164;8.012;2023-02-08T10:40:36;97379.22;;;3.51;38.11
76374;BME280;65197;50.164;8.012;2023-02-08T10:43:27;97389.16;;;4.34;34.75
76374;BME280;65197;50.164;8.012;2023-02-08T10:46:16;97384.34;;;3.57;34.49
76374;BME280;65197;50.164;8.012;2023-02-08T10:48:55;97384.63;;;3.92;35.10
76374;BME280;65197;50.164;8.012;2023-02-08T10:51:25;97375.66;;;4.34;34.38
76374;BME280;65197;50.164;8.012;2023-02-08T10:53:51;97353.25;;;3.60;32.70
76374;BME280;65197;50.164;8.012;2023-02-08T10:58:56;97376.03;;;3.67;33.68
76374;BME280;65197;50.164;8.012;2023-02-08T11:01:22;97361.56;;;3.49;34.97
76374;BME280;65197;50.164;8.012;2023-02-08T11:04:05;97377.31;;;4.26;33.44
76374;BME280;65197;50.164;8.012;2023-02-08T11:06:31;97379.88;;;4.33;34.67
76374;BME280;65197;50.164;8.012;2023-02-08T11:08:57;97372.19;;;4.17;33.13
76374;BME280;65197;50.164;8.012;2023-02-08T11:11:24;97365.41;;;4.09;31.59
76374;BME280;65197;50.164;8.012;2023-02-08T11:14:04;97368.19;;;4.51;32.40
76374;BME280;65197;50.164;8.012;2023-02-08T11:16:31;97366.44;;;4.34;33.52
76374;BME280;65197;50.164;8.012;2023-02-08T11:19:00;97371.16;;;3.92;34.74
76374;BME280;65197;50.164;8.012;2023-02-08T11:21:38;97341.44;;;3.55;31.75
76374;BME280;65197;50.164;8.012;2023-02-08T11:24:24;97358.97;;;3.42;33.45
76374;BME280;65197;50.164;8.012;2023-02-08T11:26:51;97358.16;;;3.44;32.60
76374;BME280;65197;50.164;8.012;2023-02-08T11:29:19;97350.75;;;3.64;34.46
76374;BME280;65197;50.164;8.012;2023-02-08T11:31:56;97350.03;;;3.76;33.08
76374;BME280;65197;50.164;8.012;2023-02-08T11:34:28;97351.78;;;3.88;34.62
76374;BME280;65197;50.164;8.012;2023-02-08T11:36:55;97322.31;;;3.80;33.35
76374;BME280;65197;50.164;8.012;2023-02-08T11:41:52;97316.25;;;3.58;33.56
76374;BME280;65197;50.164;8.012;2023-02-08T11:44:29;97338.69;;;4.45;30.87
76374;BME280;65197;50.164;8.012;2023-02-08T11:46:58;97294.59;;;3.91;33.74
76374;BME280;65197;50.164;8.012;2023-02-08T11:49:27;97343.25;;;3.72;35.34
76374;BME280;65197;50.164;8.012;2023-02-08T11:51:54;97318.72;;;3.55;33.36
76374;BME280;65197;50.164;8.012;2023-02-08T11:57:08;97335.16;;;3.14;34.50
76374;BME280;65197;50.164;8.012;2023-02-08T11:59:35;97292.03;;;3.82;34.26
76374;BME280;65197;50.164;8.012;2023-02-08T12:02:19;97334.53;;;3.36;33.95
76374;BME280;65197;50.164;8.012;2023-02-08T12:04:49;97344.94;;;3.73;37.06
76374;BME280;65197;50.164;8.012;2023-02-08T12:10:51;97326.66;;;4.04;36.78
76374;BME280;65197;50.164;8.012;2023-02-08T12:13:36;97326.75;;;4.17;33.63
76374;BME280;65197;50.164;8.012;2023-02-08T12:16:34;97322.31;;;3.83;32.48
76374;BME280;65197;50.164;8.012;2023-02-08T12:22:26;97318.91;;;3.78;30.98
76374;BME280;65197;50.164;8.012;2023-02-08T12:25:21;97276.00;;;3.71;34.65
76374;BME280;65197;50.164;8.012;2023-02-08T12:30:38;97260.94;;;3.86;31.12
76374;BME280;65197;50.164;8.012;2023-02-08T12:38:58;97309.06;;;3.05;32.43
76374;BME280;65197;50.164;8.012;2023-02-08T12:47:49;97292.97;;;2.94;32.20
76374;BME280;65197;50.164;8.012;2023-02-08T12:53:20;97263.44;;;2.81;34.72
76374;BME280;65197;50.164;8.012;2023-02-08T12:55:51;97288.91;;;3.09;35.23
76374;BME280;65197;50.164;8.012;2023-02-08T13:00:53;97263.31;;;2.66;36.33
76374;BME280;65197;50.164;8.012;2023-02-08T13:05:49;97257.94;;;3.22;34.86
76374;BME280;65197;50.164;8.012;2023-02-08T13:11:12;97196.78;;;2.47;34.92
76374;BME280;65197;50.164;8.012;2023-02-08T13:13:40;97280.31;;;2.88;36.93
76374;BME280;65197;50.164;8.012;2023-02-08T13:16:22;97213.50;;;2.40;34.92
76374;BME280;65197;50.164;8.012;2023-02-08T13:18:53;97236.38;;;2.62;36.32
76374;BME280;65197;50.164;8.012;2023-02-08T13:21:23;97262.88;;;3.10;34.75
76374;BME280;65197;50.164;8.012;2023-02-08T13:23:53;97254.91;;;2.67;34.20
76374;BME280;65197;50.164;8.012;2023-02-08T13:26:21;97262.59;;;2.80;37.83
76374;BME280;65197;50.164;8.012;2023-02-08T13:28:53;97254.16;;;2.74;36.03
76374;BME280;65197;50.164;8.012;2023-02-08T13:33:55;97249.66;;;2.48;38.09
76374;BME280;65197;50.164;8.012;2023-02-08T13:36:25;97222.50;;;2.20;36.23
76374;BME280;65197;50.164;8.012;2023-02-08T13:38:52;97239.66;;;2.51;36.61
76374;BME280;65197;50.164;8.012;2023-02-08T13:41:23;97232.88;;;2.47;40.14
76374;BME280;65197;50.164;8.012;2023-02-08T13:46:21;97211.38;;;2.01;39.02
76374;BME280;65197;50.164;8.012;2023-02-08T13:48:53;97203.69;;;1.90;39.28
76374;BME280;65197;50.164;8.012;2023-02-08T13:56:44;97203.75;;;0.81;40.63
76374;BME280;65197;50.164;8.012;2023-02-08T13:59:25;97205.25;;;0.70;42.81
76374;BME280;65197;50.164;8.012;2023-02-08T14:02:19;97183.94;;;0.48;44.18
76374;BME280;65197;50.164;8.012;2023-02-08T14:04:49;97222.69;;;0.64;39.72
76374;BME280;65197;50.164;8.012;2023-02-08T14:13:03;97229.53;;;0.71;41.61
76374;BME280;65197;50.164;8.012;2023-02-08T14:15:37;97208.38;;;0.57;43.52
76374;BME280;65197;50.164;8.012;2023-02-08T14:18:04;97225.28;;;0.67;41.62
76374;BME280;65197;50.164;8.012;2023-02-08T14:20:57;97226.34;;;0.80;43.89
76374;BME280;65197;50.164;8.012;2023-02-08T14:23:26;97227.22;;;0.83;43.43
76374;BME280;65197;50.164;8.012;2023-02-08T14:25:55;97218.50;;;0.63;43.72
76374;BME280;65197;50.164;8.012;2023-02-08T14:28:31;97224.63;;;0.77;43.49
76374;BME280;65197;50.164;8.012;2023-02-08T14:31:00;97226.28;;;0.76;44.34
76374;BME280;65197;50.164;8.012;2023-02-08T14:33:55;97230.41;;;0.73;44.29
76374;BME280;65197;50.164;8.012;2023-02-08T14:36:28;97205.19;;;0.67;41.98
76374;BME280;65197;50.164;8.012;2023-02-08T14:41:55;97200.75;;;0.52;42.14
76374;BME280;65197;50.164;8.012;2023-02-08T14:52:37;97169.06;;;0.12;44.39
76374;BME280;65197;50.164;8.012;2023-02-08T14:55:13;97181.63;;;0.13;43.01
76374;BME280;65197;50.164;8.012;2023-02-08T14:57:42;97199.41;;;0.24;43.31
76374;BME280;65197;50.164;8.012;2023-02-08T15:00:19;97195.78;;;0.10;44.24
76374;BME280;65197;50.164;8.012;2023-02-08T15:02:46;97171.13;;;-0.11;43.53
76374;BME280;65197;50.164;8.012;2023-02-08T15:05:27;97194.69;;;-0.03;44.58
76374;BME280;65197;50.164;8.012;2023-02-08T15:07:56;97193.09;;;0.01;44.61
76374;BME280;65197;50.164;8.012;2023-02-08T15:10:23;97192.31;;;0.05;44.32
76374;BME280;65197;50.164;8.012;2023-02-08T15:12:52;97182.72;;;-0.18;45.25
76374;BME280;65197;50.164;8.012;2023-02-08T15:15:27;97165.09;;;-0.21;42.96
76374;BME280;65197;50.164;8.012;2023-02-08T15:17:54;97175.03;;;-0.24;43.05
76374;BME280;65197;50.164;8.012;2023-02-08T15:20:25;97125.81;;;-0.63;43.71
76374;BME280;65197;50.164;8.012;2023-02-08T15:23:03;97179.19;;;-0.26;44.09